sensor_id;sensor_type;location;lat;lon;timestamp;pressure;altitude;pressure_sealevel;temperature;humidity
63654;BME280;49809;47.418;19.080;2023-02-17T00:03:00;101432.03;;;-0.39;100.00
63654;BME280;49809;47.418;19.080;2023-02-17T00:06:36;101435.53;;;-0.49;100.00
63654;BME280;49809;47.418;19.080;2023-02-17T00:10:14;101442.97;;;-0.54;100.00
63654;BME280;49809;47.418;19.080;2023-02-17T00:13:17;101433.13;;;-0.68;100.00
63654;BME280;49809;47.418;19.080;2023-02-17T00:16:22;101439.41;;;-0.70;100.00
63654;BME280;49809;47.418;19.080;2023-02-17T00:19:29;101427.66;;;-0.57;100.00
63654;BME280;49809;47.418;19.080;2023-02-17T00:22:33;101435.44;;;-0.57;100.00
63654;BME280;49809;47.418;19.080;2023-02-17T00:25:39;101436.06;;;-0.63;100.00
63654;BME280;49809;47.418;19.080;2023-02-17T00:28:46;101436.06;;;-0.63;100.00
63654;BME280;49809;47.418;19.080;2023-02-17T00:32:10;101434.81;;;-0.76;100.00
63654;BME280;49809;47.418;19.080;2023-02-17T00:35:47;101435.75;;;-0.77;100.00
63654;BME280;49809;47.418;19.080;2023-02-17T00:38:53;101422.38;;;0.13;100.00
63654;BME280;49809;47.418;19.080;2023-02-17T00:41:58;101428.31;;;0.89;100.00
63654;BME280;49809;47.418;19.080;2023-02-17T00:45:30;101419.56;;;1.30;100.00
63654;BME280;49809;47.418;19.080;2023-02-17T00:52:54;101410.53;;;1.82;100.00
63654;BME280;49809;47.418;19.080;2023-02-17T00:55:58;101414.22;;;1.95;100.00
63654;BME280;49809;47.418;19.080;2023-02-17T00:59:21;101418.62;;;2.03;100.00
63654;BME280;49809;47.418;19.080;2023-02-17T01:02:34;101424.06;;;1.93;100.00
63654;BME280;49809;47.418;19.080;2023-02-17T01:05:44;101425.06;;;1.68;100.00
63654;BME280;49809;47.418;19.080;2023-02-17T01:08:53;101418.41;;;1.41;100.00
63654;BME280;49809;47.418;19.080;2023-02-17T01:12:01;101417.59;;;1.24;100.00
63654;BME280;49809;47.418;19.080;2023-02-17T01:15:09;101413.69;;;1.28;100.00
63654;BME280;49809;47.418;19.080;2023-02-17T01:18:16;101411.53;;;1.64;100.00
63654;BME280;49809;47.418;19.080;2023-02-17T01:21:27;101407.53;;;2.01;100.00
63654;BME280;49809;47.418;19.080;2023-02-17T01:24:55;101414.53;;;2.00;100.00
63654;BME280;49809;47.418;19.080;2023-02-17T01:28:03;101406.03;;;2.06;100.00
63654;BME280;49809;47.418;19.080;2023-02-17T01:31:07;101409.59;;;2.13;100.00
63654;BME280;49809;47.418;19.080;2023-02-17T01:34:16;101413.88;;;2.06;100.00
63654;BME280;49809;47.418;19.080;2023-02-17T01:37:21;101413.22;;;2.12;100.00
63654;BME280;49809;47.418;19.080;2023-02-17T01:40:33;101395.63;;;1.98;100.00
63654;BME280;49809;47.418;19.080;2023-02-17T01:43:36;101395.47;;;1.92;100.00
63654;BME280;49809;47.418;19.080;2023-02-17T01:47:00;101385.06;;;1.75;100.00
63654;BME280;49809;47.418;19.080;2023-02-17T01:50:07;101397.50;;;1.57;100.00
63654;BME280;49809;47.418;19.080;2023-02-17T01:53:14;101393.44;;;1.63;100.00
63654;BME280;49809;47.418;19.080;2023-02-17T01:56:32;101384.97;;;1.53;100.00
63654;BME280;49809;47.418;19.080;2023-02-17T01:59:39;101393.88;;;1.74;100.00
63654;BME280;49809;47.418;19.080;2023-02-17T02:02:46;101384.41;;;1.82;100.00
63654;BME280;49809;47.418;19.080;2023-02-17T02:05:58;101379.72;;;1.61;100.00
63654;BME280;49809;47.418;19.080;2023-02-17T02:12:41;101384.97;;;1.37;100.00
63654;BME280;49809;47.418;19.080;2023-02-17T02:30:19;101366.66;;;1.77;100.00
63654;BME280;49809;47.418;19.080;2023-02-17T02:34:22;101362.53;;;1.91;100.00
63654;BME280;49809;47.418;19.080;2023-02-17T02:37:39;101365.47;;;1.80;100.00
63654;BME280;49809;47.418;19.080;2023-02-17T02:40:49;101367.12;;;1.81;100.00
63654;BME280;49809;47.418;19.080;2023-02-17T02:43:54;101362.72;;;1.81;100.00
63654;BME280;49809;47.418;19.080;2023-02-17T02:47:42;101354.72;;;1.83;100.00
63654;BME280;49809;47.418;19.080;2023-02-17T03:01:57;101368.00;;;1.41;100.00
63654;BME280;49809;47.418;19.080;2023-02-17T03:11:56;101369.03;;;0.99;100.00
63654;BME280;49809;47.418;19.080;2023-02-17T03:15:04;101359.25;;;0.85;100.00
63654;BME280;49809;47.418;19.080;2023-02-17T03:18:13;101363.66;;;0.76;100.00
63654;BME280;49809;47.418;19.080;2023-02-17T03:21:19;101363.63;;;0.68;100.00
63654;BME280;49809;47.418;19.080;2023-02-17T03:24:26;101368.63;;;0.54;100.00
63654;BME280;49809;47.418;19.080;2023-02-17T03:28:03;101369.94;;;0.50;100.00
63654;BME280;49809;47.418;19.080;2023-02-17T03:31:10;101383.34;;;0.71;100.00
63654;BME280;49809;47.418;19.080;2023-02-17T03:34:52;101379.63;;;0.90;100.00
63654;BME280;49809;47.418;19.080;2023-02-17T03:38:24;101374.72;;;0.86;100.00
63654;BME280;49809;47.418;19.080;2023-02-17T03:41:27;101374.56;;;0.88;100.00
63654;BME280;49809;47.418;19.080;2023-02-17T03:44:31;101375.84;;;0.84;100.00
63654;BME280;49809;47.418;19.080;2023-02-17T03:47:36;101377.31;;;0.78;100.00
63654;BME280;49809;47.418;19.080;2023-02-17T03:51:16;101384.16;;;0.87;100.00
63654;BME280;49809;47.418;19.080;2023-02-17T03:54:39;101374.56;;;0.80;100.00
63654;BME280;49809;47.418;19.080;2023-02-17T04:02:40;101390.09;;;0.39;100.00
63654;BME280;49809;47.418;19.080;2023-02-17T04:05:46;101382.53;;;0.20;100.00
63654;BME280;49809;47.418;19.080;2023-02-17T04:09:18;101379.06;;;0.04;100.00
63654;BME280;49809;47.418;19.080;2023-02-17T04:12:55;101380.62;;;-0.12;100.00
63654;BME280;49809;47.418;19.080;2023-02-17T04:16:33;101378.78;;;-0.19;100.00
63654;BME280;49809;47.418;19.080;2023-02-17T04:23:43;101370.72;;;-0.08;100.00
63654;BME280;49809;47.418;19.080;2023-02-17T04:26:47;101388.66;;;0.03;100.00
63654;BME280;49809;47.418;19.080;2023-02-17T04:29:54;101383.13;;;0.06;100.00
63654;BME280;49809;47.418;19.080;2023-02-17T04:33:19;101385.59;;;0.08;100.00
63654;BME280;49809;47.418;19.080;2023-02-17T04:36:47;101378.28;;;0.11;100.00
63654;BME280;49809;47.418;19.080;2023-02-17T04:43:48;101369.91;;;-0.09;100.00
63654;BME280;49809;47.418;19.080;2023-02-17T04:46:57;101367.75;;;-0.13;100.00
63654;BME280;49809;47.418;19.080;2023-02-17T04:50:05;101362.53;;;-0.21;100.00
63654;BME280;49809;47.418;19.080;2023-02-17T04:53:53;101370.34;;;-0.21;100.00
63654;BME280;49809;47.418;19.080;2023-02-17T04:57:17;101373.19;;;-0.32;100.00
63654;BME280;49809;47.418;19.080;2023-02-17T05:00:24;101370.59;;;-0.32;100.00
63654;BME280;49809;47.418;19.080;2023-02-17T05:04:02;101361.47;;;-0.36;100.00
63654;BME280;49809;47.418;19.080;2023-02-17T05:07:28;101368.31;;;-0.35;100.00
63654;BME280;49809;47.418;19.080;2023-02-17T05:10:33;101368.00;;;-0.32;100.00
63654;BME280;49809;47.418;19.080;2023-02-17T05:13:42;101369.84;;;-0.25;100.00
63654;BME280;49809;47.418;19.080;2023-02-17T05:16:46;101369.19;;;-0.19;100.00
63654;BME280;49809;47.418;19.080;2023-02-17T05:19:54;101378.84;;;-0.11;100.00
63654;BME280;49809;47.418;19.080;2023-02-17T05:23:05;101373.38;;;0.00;100.00
63654;BME280;49809;47.418;19.080;2023-02-17T05:26:31;101372.09;;;0.12;100.00
63654;BME280;49809;47.418;19.080;2023-02-17T05:29:38;101377.06;;;0.31;100.00
63654;BME280;49809;47.418;19.080;2023-02-17T05:33:02;101373.50;;;0.49;100.00
63654;BME280;49809;47.418;19.080;2023-02-17T05:36:09;101372.56;;;0.58;100.00
63654;BME280;49809;47.418;19.080;2023-02-17T05:39:45;101372.72;;;0.64;100.00
63654;BME280;49809;47.418;19.080;2023-02-17T05:43:22;101369.34;;;0.72;100.00
63654;BME280;49809;47.418;19.080;2023-02-17T05:46:47;101367.75;;;0.87;100.00
63654;BME280;49809;47.418;19.080;2023-02-17T05:50:11;101371.00;;;1.05;100.00
63654;BME280;49809;47.418;19.080;2023-02-17T05:53:55;101369.69;;;1.25;100.00
63654;BME280;49809;47.418;19.080;2023-02-17T05:57:14;101374.88;;;1.34;100.00
63654;BME280;49809;47.418;19.080;2023-02-17T06:00:44;101377.47;;;1.42;100.00
63654;BME280;49809;47.418;19.080;2023-02-17T06:04:15;101377.47;;;1.58;100.00
63654;BME280;49809;47.418;19.080;2023-02-17T06:07:20;101371.41;;;1.73;100.00
63654;BME280;49809;47.418;19.080;2023-02-17T06:10:25;101380.69;;;1.76;100.00
63654;BME280;49809;47.418;19.080;2023-02-17T06:13:30;101371.88;;;1.77;100.00
63654;BME280;49809;47.418;19.080;2023-02-17T06:16:36;101368.09;;;1.88;100.00
63654;BME280;49809;47.418;19.080;2023-02-17T06:20:04;101367.75;;;1.91;100.00
63654;BME280;49809;47.418;19.080;2023-02-17T06:23:48;101359.09;;;1.98;100.00
63654;BME280;49809;47.418;19.080;2023-02-17T06:26:51;101380.72;;;2.15;100.00
63654;BME280;49809;47.418;19.080;2023-02-17T06:30:00;101383.88;;;2.33;100.00
63654;BME280;49809;47.418;19.080;2023-02-17T06:33:23;101389.03;;;2.49;100.00
63654;BME280;49809;47.418;19.080;2023-02-17T06:36:26;101401.81;;;2.67;99.00
63654;BME280;49809;47.418;19.080;2023-02-17T06:39:31;101401.97;;;2.96;96.55
63654;BME280;49809;47.418;19.080;2023-02-17T06:42:35;101393.84;;;3.14;94.85
63654;BME280;49809;47.418;19.080;2023-02-17T06:45:53;101391.97;;;3.23;94.64
63654;BME280;49809;47.418;19.080;2023-02-17T06:48:57;101401.03;;;3.12;95.58
63654;BME280;49809;47.418;19.080;2023-02-17T06:52:02;101394.28;;;3.18;95.94
63654;BME280;49809;47.418;19.080;2023-02-17T06:55:05;101399.06;;;3.14;96.23
63654;BME280;49809;47.418;19.080;2023-02-17T06:58:09;101392.53;;;3.33;96.26
63654;BME280;49809;47.418;19.080;2023-02-17T07:01:33;101393.16;;;3.35;96.58
63654;BME280;49809;47.418;19.080;2023-02-17T07:04:40;101387.75;;;3.36;96.28
63654;BME280;49809;47.418;19.080;2023-02-17T07:07:47;101390.38;;;3.36;96.64
63654;BME280;49809;47.418;19.080;2023-02-17T07:10:57;101400.50;;;3.17;96.96
63654;BME280;49809;47.418;19.080;2023-02-17T07:14:00;101389.72;;;3.34;97.02
63654;BME280;49809;47.418;19.080;2023-02-17T07:17:05;101385.66;;;3.32;96.98
63654;BME280;49809;47.418;19.080;2023-02-17T07:20:10;101393.50;;;3.32;96.84
63654;BME280;49809;47.418;19.080;2023-02-17T07:23:14;101396.00;;;3.48;96.61
63654;BME280;49809;47.418;19.080;2023-02-17T07:26:22;101404.75;;;3.55;96.47
63654;BME280;49809;47.418;19.080;2023-02-17T07:33:16;101404.31;;;3.66;95.98
63654;BME280;49809;47.418;19.080;2023-02-17T07:36:20;101393.47;;;3.69;96.13
63654;BME280;49809;47.418;19.080;2023-02-17T07:39:26;101382.56;;;3.80;96.35
63654;BME280;49809;47.418;19.080;2023-02-17T07:42:35;101385.47;;;3.85;95.78
63654;BME280;49809;47.418;19.080;2023-02-17T07:45:40;101383.91;;;3.76;95.98
63654;BME280;49809;47.418;19.080;2023-02-17T07:48:46;101384.38;;;3.80;96.18
63654;BME280;49809;47.418;19.080;2023-02-17T07:52:11;101370.28;;;3.81;96.76
63654;BME280;49809;47.418;19.080;2023-02-17T07:55:41;101366.19;;;3.93;96.47
63654;BME280;49809;47.418;19.080;2023-02-17T07:59:10;101365.19;;;4.09;96.13
63654;BME280;49809;47.418;19.080;2023-02-17T08:02:33;101358.47;;;4.35;95.21
63654;BME280;49809;47.418;19.080;2023-02-17T08:05:40;101365.69;;;4.69;94.06
63654;BME280;49809;47.418;19.080;2023-02-17T08:08:47;101369.69;;;5.08;91.78
63654;BME280;49809;47.418;19.080;2023-02-17T08:12:29;101368.03;;;5.28;90.49
63654;BME280;49809;47.418;19.080;2023-02-17T08:15:51;101362.44;;;5.65;88.81
63654;BME280;49809;47.418;19.080;2023-02-17T08:19:02;101361.28;;;5.75;86.76
63654;BME280;49809;47.418;19.080;2023-02-17T08:22:08;101364.31;;;5.44;88.58
63654;BME280;49809;47.418;19.080;2023-02-17T08:25:13;101374.72;;;5.31;89.30
63654;BME280;49809;47.418;19.080;2023-02-17T08:28:37;101376.75;;;5.63;88.72
63654;BME280;49809;47.418;19.080;2023-02-17T08:31:43;101383.72;;;6.05;87.59
63654;BME280;49809;47.418;19.080;2023-02-17T08:34:49;101385.84;;;6.36;87.17
63654;BME280;49809;47.418;19.080;2023-02-17T08:38:25;101387.38;;;6.78;85.11
63654;BME280;49809;47.418;19.080;2023-02-17T08:46:29;101386.00;;;7.54;83.34
63654;BME280;49809;47.418;19.080;2023-02-17T08:54:31;101378.50;;;8.28;78.25
63654;BME280;49809;47.418;19.080;2023-02-17T08:58:01;101363.88;;;8.39;70.90
63654;BME280;49809;47.418;19.080;2023-02-17T09:01:50;101374.88;;;8.29;69.88
63654;BME280;49809;47.418;19.080;2023-02-17T09:05:27;101364.09;;;8.24;68.16
63654;BME280;49809;47.418;19.080;2023-02-17T09:09:02;101378.97;;;8.12;69.63
63654;BME280;49809;47.418;19.080;2023-02-17T09:12:57;101382.56;;;8.24;69.48
63654;BME280;49809;47.418;19.080;2023-02-17T09:16:40;101372.41;;;8.35;68.72
63654;BME280;49809;47.418;19.080;2023-02-17T09:20:04;101368.87;;;8.54;68.31
63654;BME280;49809;47.418;19.080;2023-02-17T09:23:51;101372.78;;;8.38;68.16
63654;BME280;49809;47.418;19.080;2023-02-17T09:27:20;101374.41;;;8.77;67.07
63654;BME280;49809;47.418;19.080;2023-02-17T09:30:23;101366.75;;;9.00;66.77
63654;BME280;49809;47.418;19.080;2023-02-17T09:33:33;101365.59;;;9.39;63.75
63654;BME280;49809;47.418;19.080;2023-02-17T09:37:16;101362.37;;;9.12;64.83
63654;BME280;49809;47.418;19.080;2023-02-17T09:40:48;101357.50;;;9.77;62.67
63654;BME280;49809;47.418;19.080;2023-02-17T09:44:26;101358.25;;;10.21;62.04
63654;BME280;49809;47.418;19.080;2023-02-17T09:47:58;101371.44;;;10.39;61.74
63654;BME280;49809;47.418;19.080;2023-02-17T09:51:20;101372.13;;;9.80;63.56
63654;BME280;49809;47.418;19.080;2023-02-17T09:58:20;101364.72;;;9.45;65.77
63654;BME280;49809;47.418;19.080;2023-02-17T10:01:32;101354.78;;;8.98;66.82
63654;BME280;49809;47.418;19.080;2023-02-17T10:04:43;101356.22;;;9.43;66.06
63654;BME280;49809;47.418;19.080;2023-02-17T10:08:29;101352.94;;;9.48;65.96
63654;BME280;49809;47.418;19.080;2023-02-17T10:11:35;101346.88;;;8.91;69.17
63654;BME280;49809;47.418;19.080;2023-02-17T10:15:06;101343.41;;;8.97;69.87
63654;BME280;49809;47.418;19.080;2023-02-17T10:18:16;101337.34;;;9.15;69.54
63654;BME280;49809;47.418;19.080;2023-02-17T10:21:30;101325.56;;;8.93;69.55
63654;BME280;49809;47.418;19.080;2023-02-17T10:24:36;101323.84;;;8.80;69.00
63654;BME280;49809;47.418;19.080;2023-02-17T10:28:09;101317.91;;;9.09;67.89
63654;BME280;49809;47.418;19.080;2023-02-17T10:35:12;101323.38;;;8.90;66.95
63654;BME280;49809;47.418;19.080;2023-02-17T10:39:14;101323.25;;;8.47;69.36
63654;BME280;49809;47.418;19.080;2023-02-17T10:42:39;101315.19;;;9.16;67.09
63654;BME280;49809;47.418;19.080;2023-02-17T10:46:26;101317.41;;;8.69;68.28
63654;BME280;49809;47.418;19.080;2023-02-17T10:49:55;101309.53;;;8.25;69.64
63654;BME280;49809;47.418;19.080;2023-02-17T10:53:24;101304.47;;;9.11;67.89
63654;BME280;49809;47.418;19.080;2023-02-17T10:56:53;101300.72;;;9.62;66.49
63654;BME280;49809;47.418;19.080;2023-02-17T11:00:37;101303.81;;;9.15;67.16
63654;BME280;49809;47.418;19.080;2023-02-17T11:04:21;101283.75;;;9.69;64.49
63654;BME280;49809;47.418;19.080;2023-02-17T11:07:40;101285.00;;;9.85;64.92
63654;BME280;49809;47.418;19.080;2023-02-17T11:11:27;101292.78;;;10.16;64.47
63654;BME280;49809;47.418;19.080;2023-02-17T11:14:56;101289.69;;;9.10;68.14
63654;BME280;49809;47.418;19.080;2023-02-17T11:18:26;101277.41;;;9.15;66.78
63654;BME280;49809;47.418;19.080;2023-02-17T11:21:52;101275.66;;;8.60;68.48
63654;BME280;49809;47.418;19.080;2023-02-17T11:25:30;101258.38;;;8.89;68.83
63654;BME280;49809;47.418;19.080;2023-02-17T11:29:17;101263.81;;;8.69;69.21
63654;BME280;49809;47.418;19.080;2023-02-17T11:32:29;101258.41;;;8.82;69.08
63654;BME280;49809;47.418;19.080;2023-02-17T11:38:44;101244.53;;;9.30;67.61
63654;BME280;49809;47.418;19.080;2023-02-17T11:41:51;101247.41;;;9.65;68.17
63654;BME280;49809;47.418;19.080;2023-02-17T11:45:17;101231.56;;;9.94;67.59
63654;BME280;49809;47.418;19.080;2023-02-17T11:52:11;101234.16;;;9.53;68.59
63654;BME280;49809;47.418;19.080;2023-02-17T11:55:37;101226.75;;;9.91;69.52
63654;BME280;49809;47.418;19.080;2023-02-17T12:16:37;101189.06;;;10.96;68.25
63654;BME280;49809;47.418;19.080;2023-02-17T12:19:58;101195.31;;;10.55;69.94
63654;BME280;49809;47.418;19.080;2023-02-17T12:36:34;101161.78;;;10.95;70.93
63654;BME280;49809;47.418;19.080;2023-02-17T12:39:42;101160.28;;;10.29;72.80
63654;BME280;49809;47.418;19.080;2023-02-17T12:42:59;101161.44;;;10.57;72.18
63654;BME280;49809;47.418;19.080;2023-02-17T12:46:09;101163.53;;;10.66;71.93
63654;BME280;49809;47.418;19.080;2023-02-17T12:49:38;101159.59;;;10.80;72.14
63654;BME280;49809;47.418;19.080;2023-02-17T12:52:45;101165.22;;;11.07;71.21
63654;BME280;49809;47.418;19.080;2023-02-17T12:55:54;101158.19;;;11.13;71.25
63654;BME280;49809;47.418;19.080;2023-02-17T12:59:48;101158.78;;;11.03;71.44
63654;BME280;49809;47.418;19.080;2023-02-17T13:02:57;101149.25;;;11.42;70.46
63654;BME280;49809;47.418;19.080;2023-02-17T13:06:24;101154.78;;;11.29;70.69
63654;BME280;49809;47.418;19.080;2023-02-17T13:12:38;101160.19;;;10.59;70.89
63654;BME280;49809;47.418;19.080;2023-02-17T13:15:45;101158.81;;;10.68;68.93
63654;BME280;49809;47.418;19.080;2023-02-17T13:19:13;101159.00;;;10.32;68.61
63654;BME280;49809;47.418;19.080;2023-02-17T13:22:25;101169.16;;;10.35;68.47
63654;BME280;49809;47.418;19.080;2023-02-17T13:25:30;101160.50;;;10.28;69.17
63654;BME280;49809;47.418;19.080;2023-02-17T13:28:40;101167.00;;;10.14;70.15
63654;BME280;49809;47.418;19.080;2023-02-17T13:35:36;101157.09;;;9.38;78.90
63654;BME280;49809;47.418;19.080;2023-02-17T13:43:08;101164.12;;;9.07;80.36
63654;BME280;49809;47.418;19.080;2023-02-17T13:46:22;101161.19;;;9.15;81.27
63654;BME280;49809;47.418;19.080;2023-02-17T13:49:36;101146.66;;;9.25;80.44
63654;BME280;49809;47.418;19.080;2023-02-17T13:53:19;101141.50;;;9.48;81.35
63654;BME280;49809;47.418;19.080;2023-02-17T13:56:51;101129.31;;;9.77;79.64
63654;BME280;49809;47.418;19.080;2023-02-17T14:09:34;101109.47;;;10.09;77.04
63654;BME280;49809;47.418;19.080;2023-02-17T14:12:39;101117.88;;;10.06;77.89
63654;BME280;49809;47.418;19.080;2023-02-17T14:16:02;101115.06;;;10.19;77.16
63654;BME280;49809;47.418;19.080;2023-02-17T14:19:12;101111.66;;;10.00;76.42
63654;BME280;49809;47.418;19.080;2023-02-17T14:22:29;101107.66;;;10.10;77.37
63654;BME280;49809;47.418;19.080;2023-02-17T14:25:53;101102.69;;;10.13;77.02
63654;BME280;49809;47.418;19.080;2023-02-17T14:29:00;101103.59;;;9.95;76.90
63654;BME280;49809;47.418;19.080;2023-02-17T14:32:30;101104.41;;;10.08;77.06
63654;BME280;49809;47.418;19.080;2023-02-17T14:35:36;101096.59;;;10.01;76.81
63654;BME280;49809;47.418;19.080;2023-02-17T14:38:42;101103.47;;;9.90;76.51
63654;BME280;49809;47.418;19.080;2023-02-17T14:41:45;101094.94;;;9.88;76.75
63654;BME280;49809;47.418;19.080;2023-02-17T14:44:49;101094.47;;;9.80;76.17
63654;BME280;49809;47.418;19.080;2023-02-17T14:47:53;101091.84;;;9.80;76.60
63654;BME280;49809;47.418;19.080;2023-02-17T14:51:21;101091.50;;;9.76;77.37
63654;BME280;49809;47.418;19.080;2023-02-17T14:55:14;101086.47;;;9.86;77.35
63654;BME280;49809;47.418;19.080;2023-02-17T14:58:25;101080.78;;;9.83;77.82
63654;BME280;49809;47.418;19.080;2023-02-17T15:01:30;101080.81;;;9.94;77.66
63654;BME280;49809;47.418;19.080;2023-02-17T15:04:36;101076.47;;;10.00;76.31
63654;BME280;49809;47.418;19.080;2023-02-17T15:08:00;101081.63;;;9.95;76.78
63654;BME280;49809;47.418;19.080;2023-02-17T15:12:14;101072.00;;;10.00;76.00
63654;BME280;49809;47.418;19.080;2023-02-17T15:15:18;101064.50;;;9.97;77.30
63654;BME280;49809;47.418;19.080;2023-02-17T15:18:22;101052.88;;;9.98;77.27
63654;BME280;49809;47.418;19.080;2023-02-17T15:21:51;101052.41;;;9.78;78.10
63654;BME280;49809;47.418;19.080;2023-02-17T15:25:36;101053.09;;;9.85;77.66
63654;BME280;49809;47.418;19.080;2023-02-17T15:28:42;101049.75;;;9.78;77.57
63654;BME280;49809;47.418;19.080;2023-02-17T15:31:47;101039.25;;;9.60;78.08
63654;BME280;49809;47.418;19.080;2023-02-17T15:34:53;101043.66;;;9.66;78.27
63654;BME280;49809;47.418;19.080;2023-02-17T15:37:57;101046.38;;;9.48;79.53
63654;BME280;49809;47.418;19.080;2023-02-17T15:41:01;101036.81;;;9.47;78.99
63654;BME280;49809;47.418;19.080;2023-02-17T15:44:14;101039.94;;;9.44;79.70
63654;BME280;49809;47.418;19.080;2023-02-17T15:47:19;101037.50;;;9.42;79.06
63654;BME280;49809;47.418;19.080;2023-02-17T15:50:45;101034.38;;;9.34;81.13
63654;BME280;49809;47.418;19.080;2023-02-17T15:53:54;101035.94;;;9.23;81.00
63654;BME280;49809;47.418;19.080;2023-02-17T15:57:01;101037.56;;;9.06;83.52
63654;BME280;49809;47.418;19.080;2023-02-17T16:00:16;101051.91;;;8.98;84.00
63654;BME280;49809;47.418;19.080;2023-02-17T16:03:23;101060.28;;;8.95;83.64
63654;BME280;49809;47.418;19.080;2023-02-17T16:06:28;101060.91;;;8.91;82.83
63654;BME280;49809;47.418;19.080;2023-02-17T16:09:31;101058.28;;;8.91;82.40
63654;BME280;49809;47.418;19.080;2023-02-17T16:12:35;101053.66;;;8.86;82.58
63654;BME280;49809;47.418;19.080;2023-02-17T16:15:40;101046.41;;;8.82;83.27
63654;BME280;49809;47.418;19.080;2023-02-17T16:18:49;101038.00;;;8.73;83.42
63654;BME280;49809;47.418;19.080;2023-02-17T16:21:55;101036.00;;;8.68;84.10
63654;BME280;49809;47.418;19.080;2023-02-17T16:24:58;101033.22;;;8.63;83.97
63654;BME280;49809;47.418;19.080;2023-02-17T16:28:13;101025.97;;;8.59;84.45
63654;BME280;49809;47.418;19.080;2023-02-17T16:31:18;101018.72;;;8.54;85.56
63654;BME280;49809;47.418;19.080;2023-02-17T16:34:25;101014.59;;;8.58;84.56
63654;BME280;49809;47.418;19.080;2023-02-17T16:37:29;101033.78;;;8.47;85.47
63654;BME280;49809;47.418;19.080;2023-02-17T16:40:39;101037.41;;;8.53;84.74
63654;BME280;49809;47.418;19.080;2023-02-17T16:43:51;101024.50;;;8.45;84.67
63654;BME280;49809;47.418;19.080;2023-02-17T16:46:58;101032.25;;;8.40;85.15
63654;BME280;49809;47.418;19.080;2023-02-17T16:50:19;101020.66;;;8.22;85.96
63654;BME280;49809;47.418;19.080;2023-02-17T16:54:12;101019.00;;;8.03;86.47
63654;BME280;49809;47.418;19.080;2023-02-17T16:57:35;101023.41;;;7.84;87.86
63654;BME280;49809;47.418;19.080;2023-02-17T17:00:47;101008.47;;;7.78;88.61
63654;BME280;49809;47.418;19.080;2023-02-17T17:03:53;101004.69;;;7.68;88.57
63654;BME280;49809;47.418;19.080;2023-02-17T17:07:20;101010.44;;;7.58;89.82
63654;BME280;49809;47.418;19.080;2023-02-17T17:11:02;101000.56;;;7.54;89.66
63654;BME280;49809;47.418;19.080;2023-02-17T17:14:25;101007.09;;;7.45;91.22
63654;BME280;49809;47.418;19.080;2023-02-17T17:17:37;101000.66;;;7.40;91.33
63654;BME280;49809;47.418;19.080;2023-02-17T17:21:01;100997.88;;;7.29;92.62
63654;BME280;49809;47.418;19.080;2023-02-17T17:24:24;100994.66;;;7.27;91.88
63654;BME280;49809;47.418;19.080;2023-02-17T17:27:48;100989.09;;;7.10;92.25
63654;BME280;49809;47.418;19.080;2023-02-17T17:30:52;100977.41;;;6.99;93.03
63654;BME280;49809;47.418;19.080;2023-02-17T17:34:00;100973.84;;;6.81;93.88
63654;BME280;49809;47.418;19.080;2023-02-17T17:37:05;100974.31;;;6.65;95.89
63654;BME280;49809;47.418;19.080;2023-02-17T17:40:14;100981.25;;;6.52;97.28
63654;BME280;49809;47.418;19.080;2023-02-17T17:43:22;100986.91;;;6.49;96.98
63654;BME280;49809;47.418;19.080;2023-02-17T17:46:29;100982.94;;;6.27;97.07
63654;BME280;49809;47.418;19.080;2023-02-17T17:49:33;100988.63;;;6.11;97.49
63654;BME280;49809;47.418;19.080;2023-02-17T17:52:40;100993.31;;;5.96;99.04
63654;BME280;49809;47.418;19.080;2023-02-17T17:56:03;100993.09;;;5.91;99.88
63654;BME280;49809;47.418;19.080;2023-02-17T17:59:11;100991.28;;;5.98;100.00
63654;BME280;49809;47.418;19.080;2023-02-17T18:02:18;100989.09;;;5.95;100.00
63654;BME280;49809;47.418;19.080;2023-02-17T18:05:21;100989.09;;;5.95;100.00
63654;BME280;49809;47.418;19.080;2023-02-17T18:08:25;100989.87;;;6.02;100.00
63654;BME280;49809;47.418;19.080;2023-02-17T18:11:41;100988.03;;;5.96;100.00
63654;BME280;49809;47.418;19.080;2023-02-17T18:14:52;100983.41;;;5.91;100.00
63654;BME280;49809;47.418;19.080;2023-02-17T18:17:59;100974.09;;;5.82;100.00
63654;BME280;49809;47.418;19.080;2023-02-17T18:21:23;100970.06;;;5.80;100.00
63654;BME280;49809;47.418;19.080;2023-02-17T18:24:34;100966.22;;;5.76;100.00
63654;BME280;49809;47.418;19.080;2023-02-17T18:27:41;100975.13;;;5.75;100.00
63654;BME280;49809;47.418;19.080;2023-02-17T18:31:09;100974.69;;;5.78;100.00
63654;BME280;49809;47.418;19.080;2023-02-17T18:34:34;100971.28;;;5.84;100.00
63654;BME280;49809;47.418;19.080;2023-02-17T18:38:04;100976.13;;;5.87;100.00
63654;BME280;49809;47.418;19.080;2023-02-17T18:41:49;100965.25;;;5.90;100.00
63654;BME280;49809;47.418;19.080;2023-02-17T18:45:30;100961.19;;;5.94;100.00
63654;BME280;49809;47.418;19.080;2023-02-17T18:49:17;100949.66;;;5.95;100.00
63654;BME280;49809;47.418;19.080;2023-02-17T18:52:30;100945.81;;;5.97;100.00
63654;BME280;49809;47.418;19.080;2023-02-17T18:55:38;100940.34;;;5.99;100.00
63654;BME280;49809;47.418;19.080;2023-02-17T18:59:01;100940.56;;;6.04;100.00
63654;BME280;49809;47.418;19.080;2023-02-17T19:02:26;100936.69;;;6.06;100.00
63654;BME280;49809;47.418;19.080;2023-02-17T19:05:34;100928.63;;;6.01;100.00
63654;BME280;49809;47.418;19.080;2023-02-17T19:09:00;100936.09;;;6.04;100.00
63654;BME280;49809;47.418;19.080;2023-02-17T19:12:05;100932.44;;;6.05;100.00
63654;BME280;49809;47.418;19.080;2023-02-17T19:15:33;100938.13;;;6.02;100.00